sensor_id;sensor_type;location;lat;lon;timestamp;pressure;altitude;pressure_sealevel;temperature
15680;BMP180;15488;48.114;11.532;2023-03-14T00:01:44;93920.00;;;20.50
15680;BMP180;15488;48.114;11.532;2023-03-14T00:04:12;93913.00;;;20.40
15680;BMP180;15488;48.114;11.532;2023-03-14T00:06:39;93898.00;;;20.40
15680;BMP180;15488;48.114;11.532;2023-03-14T00:09:07;93891.00;;;20.50
15680;BMP180;15488;48.114;11.532;2023-03-14T00:11:34;93878.00;;;20.40
15680;BMP180;15488;48.114;11.532;2023-03-14T00:14:03;93897.00;;;20.40
15680;BMP180;15488;48.114;11.532;2023-03-14T00:16:31;93904.00;;;20.40
15680;BMP180;15488;48.114;11.532;2023-03-14T00:18:59;93919.00;;;20.40
15680;BMP180;15488;48.114;11.532;2023-03-14T00:21:27;93921.00;;;20.40
15680;BMP180;15488;48.114;11.532;2023-03-14T00:23:54;93903.00;;;20.40
15680;BMP180;15488;48.114;11.532;2023-03-14T00:26:22;93900.00;;;20.40
15680;BMP180;15488;48.114;11.532;2023-03-14T00:28:52;93898.00;;;20.30
15680;BMP180;15488;48.114;11.532;2023-03-14T00:31:21;93876.00;;;20.30
15680;BMP180;15488;48.114;11.532;2023-03-14T00:33:50;93903.00;;;20.30
15680;BMP180;15488;48.114;11.532;2023-03-14T00:36:18;93905.00;;;20.30
15680;BMP180;15488;48.114;11.532;2023-03-14T00:38:49;93893.00;;;20.30
15680;BMP180;15488;48.114;11.532;2023-03-14T00:41:19;93899.00;;;20.30
15680;BMP180;15488;48.114;11.532;2023-03-14T00:43:48;93908.00;;;20.30
15680;BMP180;15488;48.114;11.532;2023-03-14T00:46:16;93914.00;;;20.40
15680;BMP180;15488;48.114;11.532;2023-03-14T00:48:46;93921.00;;;20.30
15680;BMP180;15488;48.114;11.532;2023-03-14T00:51:14;93915.00;;;20.30
15680;BMP180;15488;48.114;11.532;2023-03-14T00:53:42;93906.00;;;20.30
15680;BMP180;15488;48.114;11.532;2023-03-14T00:56:11;93911.00;;;20.30
15680;BMP180;15488;48.114;11.532;2023-03-14T00:58:39;93906.00;;;20.30
15680;BMP180;15488;48.114;11.532;2023-03-14T01:01:08;93919.00;;;20.20
15680;BMP180;15488;48.114;11.532;2023-03-14T01:03:36;93932.00;;;20.20
15680;BMP180;15488;48.114;11.532;2023-03-14T01:06:09;93940.00;;;20.20
15680;BMP180;15488;48.114;11.532;2023-03-14T01:08:37;93940.00;;;20.20
15680;BMP180;15488;48.114;11.532;2023-03-14T01:11:10;93946.00;;;20.20
15680;BMP180;15488;48.114;11.532;2023-03-14T01:13:38;93952.00;;;20.20
15680;BMP180;15488;48.114;11.532;2023-03-14T01:16:08;93949.00;;;20.20
15680;BMP180;15488;48.114;11.532;2023-03-14T01:18:37;93945.00;;;20.20
15680;BMP180;15488;48.114;11.532;2023-03-14T01:21:12;93952.00;;;20.20
15680;BMP180;15488;48.114;11.532;2023-03-14T01:23:40;93956.00;;;20.20
15680;BMP180;15488;48.114;11.532;2023-03-14T01:26:09;93955.00;;;20.10
15680;BMP180;15488;48.114;11.532;2023-03-14T01:28:37;93956.00;;;20.10
15680;BMP180;15488;48.114;11.532;2023-03-14T01:31:06;93949.00;;;20.10
15680;BMP180;15488;48.114;11.532;2023-03-14T01:33:34;93957.00;;;20.10
15680;BMP180;15488;48.114;11.532;2023-03-14T01:36:02;93955.00;;;20.10
15680;BMP180;15488;48.114;11.532;2023-03-14T01:38:32;93957.00;;;20.10
15680;BMP180;15488;48.114;11.532;2023-03-14T01:41:00;93967.00;;;20.00
15680;BMP180;15488;48.114;11.532;2023-03-14T01:43:28;93959.00;;;20.00
15680;BMP180;15488;48.114;11.532;2023-03-14T01:46:21;93967.00;;;20.00
15680;BMP180;15488;48.114;11.532;2023-03-14T01:49:00;93975.00;;;20.00
15680;BMP180;15488;48.114;11.532;2023-03-14T01:51:33;93971.00;;;20.00
15680;BMP180;15488;48.114;11.532;2023-03-14T01:54:07;93980.00;;;19.90
15680;BMP180;15488;48.114;11.532;2023-03-14T01:56:37;93972.00;;;19.90
15680;BMP180;15488;48.114;11.532;2023-03-14T01:59:07;93976.00;;;19.90
15680;BMP180;15488;48.114;11.532;2023-03-14T02:01:36;93975.00;;;19.90
15680;BMP180;15488;48.114;11.532;2023-03-14T02:04:05;93982.00;;;19.90
15680;BMP180;15488;48.114;11.532;2023-03-14T02:06:44;93975.00;;;19.80
15680;BMP180;15488;48.114;11.532;2023-03-14T02:09:15;93965.00;;;19.80
15680;BMP180;15488;48.114;11.532;2023-03-14T02:11:43;93964.00;;;19.80
15680;BMP180;15488;48.114;11.532;2023-03-14T02:14:19;93960.00;;;19.80
15680;BMP180;15488;48.114;11.532;2023-03-14T02:16:50;93957.00;;;19.70
15680;BMP180;15488;48.114;11.532;2023-03-14T02:19:24;93967.00;;;19.70
15680;BMP180;15488;48.114;11.532;2023-03-14T02:21:59;93960.00;;;19.70
15680;BMP180;15488;48.114;11.532;2023-03-14T02:24:36;93939.00;;;19.60
15680;BMP180;15488;48.114;11.532;2023-03-14T02:27:12;93925.00;;;19.50
15680;BMP180;15488;48.114;11.532;2023-03-14T02:29:45;93910.00;;;19.60
15680;BMP180;15488;48.114;11.532;2023-03-14T02:32:15;93899.00;;;19.40
15680;BMP180;15488;48.114;11.532;2023-03-14T02:34:45;93884.00;;;19.40
15680;BMP180;15488;48.114;11.532;2023-03-14T02:37:15;93877.00;;;19.40
15680;BMP180;15488;48.114;11.532;2023-03-14T02:39:45;93860.00;;;19.30
15680;BMP180;15488;48.114;11.532;2023-03-14T02:42:15;93854.00;;;19.20
15680;BMP180;15488;48.114;11.532;2023-03-14T02:44:50;93828.00;;;19.20
15680;BMP180;15488;48.114;11.532;2023-03-14T02:47:20;93821.00;;;19.20
15680;BMP180;15488;48.114;11.532;2023-03-14T02:49:49;93824.00;;;19.10
15680;BMP180;15488;48.114;11.532;2023-03-14T02:52:17;93821.00;;;19.10
15680;BMP180;15488;48.114;11.532;2023-03-14T02:54:44;93807.00;;;19.10
15680;BMP180;15488;48.114;11.532;2023-03-14T02:57:13;93799.00;;;19.00
15680;BMP180;15488;48.114;11.532;2023-03-14T02:59:41;93802.00;;;19.00
15680;BMP180;15488;48.114;11.532;2023-03-14T03:02:08;93803.00;;;19.00
15680;BMP180;15488;48.114;11.532;2023-03-14T03:04:35;93779.00;;;18.90
15680;BMP180;15488;48.114;11.532;2023-03-14T03:07:03;93772.00;;;18.90
15680;BMP180;15488;48.114;11.532;2023-03-14T03:09:30;93797.00;;;18.80
15680;BMP180;15488;48.114;11.532;2023-03-14T03:11:58;93818.00;;;18.70
15680;BMP180;15488;48.114;11.532;2023-03-14T03:14:27;93808.00;;;18.70
15680;BMP180;15488;48.114;11.532;2023-03-14T03:16:54;93801.00;;;18.60
15680;BMP180;15488;48.114;11.532;2023-03-14T03:19:21;93819.00;;;18.60
15680;BMP180;15488;48.114;11.532;2023-03-14T03:21:49;93801.00;;;18.50
15680;BMP180;15488;48.114;11.532;2023-03-14T03:24:16;93811.00;;;18.40
15680;BMP180;15488;48.114;11.532;2023-03-14T03:26:44;93802.00;;;18.40
15680;BMP180;15488;48.114;11.532;2023-03-14T03:29:11;93805.00;;;18.30
15680;BMP180;15488;48.114;11.532;2023-03-14T03:31:40;93813.00;;;18.30
15680;BMP180;15488;48.114;11.532;2023-03-14T03:34:07;93795.00;;;18.30
15680;BMP180;15488;48.114;11.532;2023-03-14T03:36:35;93794.00;;;18.20
15680;BMP180;15488;48.114;11.532;2023-03-14T03:39:02;93802.00;;;18.20
15680;BMP180;15488;48.114;11.532;2023-03-14T03:41:30;93790.00;;;18.20
15680;BMP180;15488;48.114;11.532;2023-03-14T03:43:58;93793.00;;;18.20
15680;BMP180;15488;48.114;11.532;2023-03-14T03:46:26;93798.00;;;18.20
15680;BMP180;15488;48.114;11.532;2023-03-14T03:48:57;93796.00;;;18.10
15680;BMP180;15488;48.114;11.532;2023-03-14T03:51:24;93805.00;;;18.10
15680;BMP180;15488;48.114;11.532;2023-03-14T03:53:52;93800.00;;;18.10
15680;BMP180;15488;48.114;11.532;2023-03-14T03:56:20;93795.00;;;18.10
15680;BMP180;15488;48.114;11.532;2023-03-14T03:58:47;93783.00;;;18.00
15680;BMP180;15488;48.114;11.532;2023-03-14T04:01:15;93792.00;;;18.00
15680;BMP180;15488;48.114;11.532;2023-03-14T04:03:42;93791.00;;;18.00
15680;BMP180;15488;48.114;11.532;2023-03-14T04:06:12;93776.00;;;17.90
15680;BMP180;15488;48.114;11.532;2023-03-14T04:08:40;93781.00;;;17.90
15680;BMP180;15488;48.114;11.532;2023-03-14T04:11:08;93801.00;;;17.90
15680;BMP180;15488;48.114;11.532;2023-03-14T04:13:35;93793.00;;;17.80
15680;BMP180;15488;48.114;11.532;2023-03-14T04:16:03;93803.00;;;17.80
15680;BMP180;15488;48.114;11.532;2023-03-14T04:18:30;93786.00;;;17.80
15680;BMP180;15488;48.114;11.532;2023-03-14T04:20:58;93776.00;;;17.80
15680;BMP180;15488;48.114;11.532;2023-03-14T04:23:27;93768.00;;;17.70
15680;BMP180;15488;48.114;11.532;2023-03-14T04:25:54;93773.00;;;17.70
15680;BMP180;15488;48.114;11.532;2023-03-14T04:28:22;93768.00;;;17.70
15680;BMP180;15488;48.114;11.532;2023-03-14T04:30:49;93766.00;;;17.70
15680;BMP180;15488;48.114;11.532;2023-03-14T04:33:17;93756.00;;;17.70
15680;BMP180;15488;48.114;11.532;2023-03-14T04:35:44;93749.00;;;17.60
15680;BMP180;15488;48.114;11.532;2023-03-14T04:38:12;93752.00;;;17.60
15680;BMP180;15488;48.114;11.532;2023-03-14T04:40:41;93741.00;;;17.60
15680;BMP180;15488;48.114;11.532;2023-03-14T04:43:11;93741.00;;;17.60
15680;BMP180;15488;48.114;11.532;2023-03-14T04:45:41;93750.00;;;17.60
15680;BMP180;15488;48.114;11.532;2023-03-14T04:48:09;93745.00;;;17.60
15680;BMP180;15488;48.114;11.532;2023-03-14T04:50:36;93735.00;;;17.60
15680;BMP180;15488;48.114;11.532;2023-03-14T04:53:04;93737.00;;;17.60
15680;BMP180;15488;48.114;11.532;2023-03-14T04:55:32;93723.00;;;17.60
15680;BMP180;15488;48.114;11.532;2023-03-14T04:58:02;93707.00;;;17.60
15680;BMP180;15488;48.114;11.532;2023-03-14T05:00:29;93701.00;;;17.60
15680;BMP180;15488;48.114;11.532;2023-03-14T05:02:57;93708.00;;;17.60
15680;BMP180;15488;48.114;11.532;2023-03-14T05:05:24;93708.00;;;17.60
15680;BMP180;15488;48.114;11.532;2023-03-14T05:07:52;93714.00;;;17.60
15680;BMP180;15488;48.114;11.532;2023-03-14T05:10:19;93714.00;;;17.60
15680;BMP180;15488;48.114;11.532;2023-03-14T05:12:47;93705.00;;;17.60
15680;BMP180;15488;48.114;11.532;2023-03-14T05:15:15;93704.00;;;17.60
15680;BMP180;15488;48.114;11.532;2023-03-14T05:17:43;93704.00;;;17.60
15680;BMP180;15488;48.114;11.532;2023-03-14T05:20:12;93702.00;;;17.60
15680;BMP180;15488;48.114;11.532;2023-03-14T05:22:39;93704.00;;;17.60
15680;BMP180;15488;48.114;11.532;2023-03-14T05:25:08;93706.00;;;17.60
15680;BMP180;15488;48.114;11.532;2023-03-14T05:27:36;93713.00;;;17.60
15680;BMP180;15488;48.114;11.532;2023-03-14T05:30:04;93709.00;;;17.70
15680;BMP180;15488;48.114;11.532;2023-03-14T05:32:33;93712.00;;;17.60
15680;BMP180;15488;48.114;11.532;2023-03-14T05:35:01;93709.00;;;17.60
15680;BMP180;15488;48.114;11.532;2023-03-14T05:37:28;93711.00;;;17.60
15680;BMP180;15488;48.114;11.532;2023-03-14T05:39:56;93705.00;;;17.60
15680;BMP180;15488;48.114;11.532;2023-03-14T05:42:23;93705.00;;;17.60
15680;BMP180;15488;48.114;11.532;2023-03-14T05:44:51;93703.00;;;17.60
15680;BMP180;15488;48.114;11.532;2023-03-14T05:47:18;93696.00;;;17.70
15680;BMP180;15488;48.114;11.532;2023-03-14T05:49:47;93702.00;;;17.60
15680;BMP180;15488;48.114;11.532;2023-03-14T05:52:14;93702.00;;;17.60
15680;BMP180;15488;48.114;11.532;2023-03-14T05:54:42;93699.00;;;17.60
15680;BMP180;15488;48.114;11.532;2023-03-14T05:57:09;93696.00;;;17.60
15680;BMP180;15488;48.114;11.532;2023-03-14T05:59:37;93687.00;;;17.60
15680;BMP180;15488;48.114;11.532;2023-03-14T06:02:04;93689.00;;;17.60
15680;BMP180;15488;48.114;11.532;2023-03-14T06:04:32;93685.00;;;17.70
15680;BMP180;15488;48.114;11.532;2023-03-14T06:07:03;93684.00;;;17.70
15680;BMP180;15488;48.114;11.532;2023-03-14T06:09:31;93684.00;;;17.70
15680;BMP180;15488;48.114;11.532;2023-03-14T06:11:58;93689.00;;;17.70
15680;BMP180;15488;48.114;11.532;2023-03-14T06:14:26;93672.00;;;17.70
15680;BMP180;15488;48.114;11.532;2023-03-14T06:16:53;93685.00;;;17.80
15680;BMP180;15488;48.114;11.532;2023-03-14T06:19:21;93676.00;;;17.70
15680;BMP180;15488;48.114;11.532;2023-03-14T06:21:49;93677.00;;;17.70
15680;BMP180;15488;48.114;11.532;2023-03-14T06:24:18;93679.00;;;17.70
15680;BMP180;15488;48.114;11.532;2023-03-14T06:26:45;93677.00;;;17.70
15680;BMP180;15488;48.114;11.532;2023-03-14T06:29:13;93677.00;;;17.70
15680;BMP180;15488;48.114;11.532;2023-03-14T06:31:40;93668.00;;;17.70
15680;BMP180;15488;48.114;11.532;2023-03-14T06:34:08;93659.00;;;17.70
15680;BMP180;15488;48.114;11.532;2023-03-14T06:36:35;93652.00;;;17.70
15680;BMP180;15488;48.114;11.532;2023-03-14T06:39:03;93640.00;;;17.70
15680;BMP180;15488;48.114;11.532;2023-03-14T06:41:32;93640.00;;;17.70
15680;BMP180;15488;48.114;11.532;2023-03-14T06:43:59;93634.00;;;17.80
15680;BMP180;15488;48.114;11.532;2023-03-14T06:46:26;93636.00;;;17.80
15680;BMP180;15488;48.114;11.532;2023-03-14T06:48:54;93641.00;;;17.80
15680;BMP180;15488;48.114;11.532;2023-03-14T06:51:21;93646.00;;;17.80
15680;BMP180;15488;48.114;11.532;2023-03-14T06:53:49;93664.00;;;17.80
15680;BMP180;15488;48.114;11.532;2023-03-14T06:56:16;93666.00;;;17.90
15680;BMP180;15488;48.114;11.532;2023-03-14T06:58:45;93666.00;;;17.90
15680;BMP180;15488;48.114;11.532;2023-03-14T07:01:21;93666.00;;;17.90
15680;BMP180;15488;48.114;11.532;2023-03-14T07:03:50;93672.00;;;18.00
15680;BMP180;15488;48.114;11.532;2023-03-14T07:06:17;93678.00;;;18.10
15680;BMP180;15488;48.114;11.532;2023-03-14T07:08:45;93681.00;;;18.00
15680;BMP180;15488;48.114;11.532;2023-03-14T07:11:13;93689.00;;;18.00
15680;BMP180;15488;48.114;11.532;2023-03-14T07:13:40;93684.00;;;18.10
15680;BMP180;15488;48.114;11.532;2023-03-14T07:16:09;93677.00;;;18.00
15680;BMP180;15488;48.114;11.532;2023-03-14T07:18:37;93677.00;;;18.10
15680;BMP180;15488;48.114;11.532;2023-03-14T07:21:05;93676.00;;;18.10
15680;BMP180;15488;48.114;11.532;2023-03-14T07:23:33;93677.00;;;18.20
15680;BMP180;15488;48.114;11.532;2023-03-14T07:26:00;93676.00;;;18.10
15680;BMP180;15488;48.114;11.532;2023-03-14T07:28:28;93676.00;;;18.10
15680;BMP180;15488;48.114;11.532;2023-03-14T07:30:56;93679.00;;;18.10
15680;BMP180;15488;48.114;11.532;2023-03-14T07:33:25;93676.00;;;18.10
15680;BMP180;15488;48.114;11.532;2023-03-14T07:35:52;93674.00;;;18.10
15680;BMP180;15488;48.114;11.532;2023-03-14T07:38:20;93684.00;;;18.20
15680;BMP180;15488;48.114;11.532;2023-03-14T07:40:47;93668.00;;;18.20
15680;BMP180;15488;48.114;11.532;2023-03-14T07:43:14;93666.00;;;18.30
15680;BMP180;15488;48.114;11.532;2023-03-14T07:45:44;93664.00;;;18.20
15680;BMP180;15488;48.114;11.532;2023-03-14T07:48:12;93657.00;;;18.20
15680;BMP180;15488;48.114;11.532;2023-03-14T07:50:41;93664.00;;;18.30
15680;BMP180;15488;48.114;11.532;2023-03-14T07:53:08;93653.00;;;18.30
15680;BMP180;15488;48.114;11.532;2023-03-14T07:55:36;93658.00;;;18.40
15680;BMP180;15488;48.114;11.532;2023-03-14T07:58:03;93651.00;;;18.30
15680;BMP180;15488;48.114;11.532;2023-03-14T08:00:30;93653.00;;;18.30
15680;BMP180;15488;48.114;11.532;2023-03-14T08:02:58;93655.00;;;18.40
15680;BMP180;15488;48.114;11.532;2023-03-14T08:05:26;93658.00;;;18.40
15680;BMP180;15488;48.114;11.532;2023-03-14T08:07:55;93657.00;;;18.40
15680;BMP180;15488;48.114;11.532;2023-03-14T08:10:22;93652.00;;;18.40
15680;BMP180;15488;48.114;11.532;2023-03-14T08:12:50;93655.00;;;18.50
15680;BMP180;15488;48.114;11.532;2023-03-14T08:15:17;93658.00;;;18.50
15680;BMP180;15488;48.114;11.532;2023-03-14T08:17:45;93653.00;;;18.60
15680;BMP180;15488;48.114;11.532;2023-03-14T08:20:17;93653.00;;;18.60
15680;BMP180;15488;48.114;11.532;2023-03-14T08:22:44;93657.00;;;18.60
15680;BMP180;15488;48.114;11.532;2023-03-14T08:25:13;93678.00;;;18.60
15680;BMP180;15488;48.114;11.532;2023-03-14T08:27:41;93665.00;;;18.60
15680;BMP180;15488;48.114;11.532;2023-03-14T08:30:10;93675.00;;;18.60
15680;BMP180;15488;48.114;11.532;2023-03-14T08:32:38;93671.00;;;18.70
15680;BMP180;15488;48.114;11.532;2023-03-14T08:35:07;93678.00;;;18.70
15680;BMP180;15488;48.114;11.532;2023-03-14T08:37:35;93683.00;;;18.70
15680;BMP180;15488;48.114;11.532;2023-03-14T08:40:04;93687.00;;;18.70
15680;BMP180;15488;48.114;11.532;2023-03-14T08:42:34;93692.00;;;18.70
15680;BMP180;15488;48.114;11.532;2023-03-14T08:45:02;93696.00;;;18.80
15680;BMP180;15488;48.114;11.532;2023-03-14T08:47:30;93693.00;;;18.80
15680;BMP180;15488;48.114;11.532;2023-03-14T08:49:57;93703.00;;;18.80
15680;BMP180;15488;48.114;11.532;2023-03-14T08:52:25;93700.00;;;18.90
15680;BMP180;15488;48.114;11.532;2023-03-14T08:54:52;93696.00;;;18.90
15680;BMP180;15488;48.114;11.532;2023-03-14T08:57:20;93698.00;;;18.80
15680;BMP180;15488;48.114;11.532;2023-03-14T08:59:49;93697.00;;;18.80
15680;BMP180;15488;48.114;11.532;2023-03-14T09:02:16;93700.00;;;18.80
15680;BMP180;15488;48.114;11.532;2023-03-14T09:04:44;93706.00;;;18.80
15680;BMP180;15488;48.114;11.532;2023-03-14T09:07:11;93700.00;;;18.80
15680;BMP180;15488;48.114;11.532;2023-03-14T09:09:39;93696.00;;;18.90
15680;BMP180;15488;48.114;11.532;2023-03-14T09:12:06;93697.00;;;18.80
15680;BMP180;15488;48.114;11.532;2023-03-14T09:14:34;93698.00;;;18.90
15680;BMP180;15488;48.114;11.532;2023-03-14T09:17:03;93709.00;;;19.00
15680;BMP180;15488;48.114;11.532;2023-03-14T09:19:31;93709.00;;;19.00
15680;BMP180;15488;48.114;11.532;2023-03-14T09:21:58;93705.00;;;18.90
15680;BMP180;15488;48.114;11.532;2023-03-14T09:24:26;93705.00;;;19.00
15680;BMP180;15488;48.114;11.532;2023-03-14T09:26:54;93713.00;;;19.00
15680;BMP180;15488;48.114;11.532;2023-03-14T09:29:22;93716.00;;;19.00
15680;BMP180;15488;48.114;11.532;2023-03-14T09:31:50;93703.00;;;19.00
15680;BMP180;15488;48.114;11.532;2023-03-14T09:34:19;93705.00;;;19.10
15680;BMP180;15488;48.114;11.532;2023-03-14T09:36:46;93705.00;;;19.10
15680;BMP180;15488;48.114;11.532;2023-03-14T09:39:14;93696.00;;;19.00
15680;BMP180;15488;48.114;11.532;2023-03-14T09:41:44;93691.00;;;19.00
15680;BMP180;15488;48.114;11.532;2023-03-14T09:44:16;93686.00;;;19.10
15680;BMP180;15488;48.114;11.532;2023-03-14T09:46:49;93689.00;;;19.20
15680;BMP180;15488;48.114;11.532;2023-03-14T09:49:23;93690.00;;;19.10
15680;BMP180;15488;48.114;11.532;2023-03-14T09:51:54;93685.00;;;19.10
15680;BMP180;15488;48.114;11.532;2023-03-14T09:54:31;93679.00;;;19.20
15680;BMP180;15488;48.114;11.532;2023-03-14T09:56:59;93675.00;;;19.10
15680;BMP180;15488;48.114;11.532;2023-03-14T09:59:27;93677.00;;;19.20
15680;BMP180;15488;48.114;11.532;2023-03-14T10:01:58;93680.00;;;19.20
15680;BMP180;15488;48.114;11.532;2023-03-14T10:04:29;93673.00;;;19.20
15680;BMP180;15488;48.114;11.532;2023-03-14T10:06:58;93678.00;;;19.20
15680;BMP180;15488;48.114;11.532;2023-03-14T10:09:26;93679.00;;;19.30
15680;BMP180;15488;48.114;11.532;2023-03-14T10:11:56;93680.00;;;19.30
15680;BMP180;15488;48.114;11.532;2023-03-14T10:14:31;93669.00;;;19.30
15680;BMP180;15488;48.114;11.532;2023-03-14T10:17:06;93687.00;;;19.40
15680;BMP180;15488;48.114;11.532;2023-03-14T10:19:36;93666.00;;;19.40
15680;BMP180;15488;48.114;11.532;2023-03-14T10:22:05;93672.00;;;19.40
15680;BMP180;15488;48.114;11.532;2023-03-14T10:24:34;93668.00;;;19.50
15680;BMP180;15488;48.114;11.532;2023-03-14T10:27:04;93656.00;;;19.50
15680;BMP180;15488;48.114;11.532;2023-03-14T10:29:33;93644.00;;;19.60
15680;BMP180;15488;48.114;11.532;2023-03-14T10:32:03;93644.00;;;19.70
15680;BMP180;15488;48.114;11.532;2023-03-14T10:34:32;93668.00;;;19.70
15680;BMP180;15488;48.114;11.532;2023-03-14T10:37:07;93653.00;;;19.70
15680;BMP180;15488;48.114;11.532;2023-03-14T10:39:41;93659.00;;;19.80
15680;BMP180;15488;48.114;11.532;2023-03-14T10:42:15;93645.00;;;19.80
15680;BMP180;15488;48.114;11.532;2023-03-14T10:44:44;93671.00;;;19.90
15680;BMP180;15488;48.114;11.532;2023-03-14T10:47:22;93658.00;;;19.90
15680;BMP180;15488;48.114;11.532;2023-03-14T10:49:50;93658.00;;;20.00
15680;BMP180;15488;48.114;11.532;2023-03-14T10:52:23;93651.00;;;19.90
15680;BMP180;15488;48.114;11.532;2023-03-14T10:54:56;93658.00;;;20.00
15680;BMP180;15488;48.114;11.532;2023-03-14T10:57:25;93672.00;;;20.10
15680;BMP180;15488;48.114;11.532;2023-03-14T10:59:54;93664.00;;;20.10
15680;BMP180;15488;48.114;11.532;2023-03-14T11:02:34;93667.00;;;20.10
15680;BMP180;15488;48.114;11.532;2023-03-14T11:05:19;93670.00;;;20.20
15680;BMP180;15488;48.114;11.532;2023-03-14T11:07:53;93671.00;;;20.20
15680;BMP180;15488;48.114;11.532;2023-03-14T11:10:30;93668.00;;;20.30
15680;BMP180;15488;48.114;11.532;2023-03-14T11:13:15;93575.00;;;20.30
15680;BMP180;15488;48.114;11.532;2023-03-14T11:15:50;93667.00;;;20.30
15680;BMP180;15488;48.114;11.532;2023-03-14T11:21:40;93663.00;;;20.40
15680;BMP180;15488;48.114;11.532;2023-03-14T11:24:45;93672.00;;;20.40
15680;BMP180;15488;48.114;11.532;2023-03-14T11:27:18;93656.00;;;20.50
15680;BMP180;15488;48.114;11.532;2023-03-14T11:29:53;93673.00;;;20.50
15680;BMP180;15488;48.114;11.532;2023-03-14T11:32:32;93667.00;;;20.50
15680;BMP180;15488;48.114;11.532;2023-03-14T11:35:04;93643.00;;;20.60
15680;BMP180;15488;48.114;11.532;2023-03-14T11:37:39;93648.00;;;20.60
15680;BMP180;15488;48.114;11.532;2023-03-14T11:40:16;93646.00;;;20.70
15680;BMP180;15488;48.114;11.532;2023-03-14T11:42:48;93643.00;;;20.70
15680;BMP180;15488;48.114;11.532;2023-03-14T11:45:19;93641.00;;;20.80
15680;BMP180;15488;48.114;11.532;2023-03-14T11:47:53;93636.00;;;20.90
15680;BMP180;15488;48.114;11.532;2023-03-14T11:50:24;93638.00;;;20.90
15680;BMP180;15488;48.114;11.532;2023-03-14T11:52:56;93659.00;;;21.00
15680;BMP180;15488;48.114;11.532;2023-03-14T11:55:29;93641.00;;;21.00
15680;BMP180;15488;48.114;11.532;2023-03-14T11:58:01;93639.00;;;21.00
15680;BMP180;15488;48.114;11.532;2023-03-14T12:00:30;93634.00;;;21.00
15680;BMP180;15488;48.114;11.532;2023-03-14T12:03:01;93631.00;;;21.00
15680;BMP180;15488;48.114;11.532;2023-03-14T12:05:48;93629.00;;;21.00
15680;BMP180;15488;48.114;11.532;2023-03-14T12:11:14;93633.00;;;21.00
15680;BMP180;15488;48.114;11.532;2023-03-14T12:13:47;93642.00;;;21.00
15680;BMP180;15488;48.114;11.532;2023-03-14T12:16:32;93638.00;;;21.00
15680;BMP180;15488;48.114;11.532;2023-03-14T12:19:15;93632.00;;;21.00
15680;BMP180;15488;48.114;11.532;2023-03-14T12:21:49;93635.00;;;21.00
15680;BMP180;15488;48.114;11.532;2023-03-14T12:24:19;93634.00;;;21.00
15680;BMP180;15488;48.114;11.532;2023-03-14T12:26:53;93634.00;;;21.00
15680;BMP180;15488;48.114;11.532;2023-03-14T12:29:21;93640.00;;;21.00
15680;BMP180;15488;48.114;11.532;2023-03-14T12:32:05;93631.00;;;20.90
15680;BMP180;15488;48.114;11.532;2023-03-14T12:34:33;93641.00;;;21.00
15680;BMP180;15488;48.114;11.532;2023-03-14T12:37:29;93625.00;;;20.90
15680;BMP180;15488;48.114;11.532;2023-03-14T12:40:21;93640.00;;;20.90
15680;BMP180;15488;48.114;11.532;2023-03-14T12:42:58;93636.00;;;21.00
15680;BMP180;15488;48.114;11.532;2023-03-14T12:45:28;93667.00;;;21.00
15680;BMP180;15488;48.114;11.532;2023-03-14T12:48:08;93621.00;;;21.00
15680;BMP180;15488;48.114;11.532;2023-03-14T12:50:42;93649.00;;;21.10
15680;BMP180;15488;48.114;11.532;2023-03-14T12:53:47;93666.00;;;21.30
15680;BMP180;15488;48.114;11.532;2023-03-14T12:56:25;93670.00;;;21.40
15680;BMP180;15488;48.114;11.532;2023-03-14T12:59:09;93660.00;;;21.50
15680;BMP180;15488;48.114;11.532;2023-03-14T13:01:47;93680.00;;;21.70
15680;BMP180;15488;48.114;11.532;2023-03-14T13:04:27;93679.00;;;21.80
15680;BMP180;15488;48.114;11.532;2023-03-14T13:06:56;93669.00;;;21.70
15680;BMP180;15488;48.114;11.532;2023-03-14T13:09:45;93689.00;;;21.70
15680;BMP180;15488;48.114;11.532;2023-03-14T13:12:17;93674.00;;;21.70
15680;BMP180;15488;48.114;11.532;2023-03-14T13:14:48;93682.00;;;21.60
15680;BMP180;15488;48.114;11.532;2023-03-14T13:17:24;93689.00;;;21.50
15680;BMP180;15488;48.114;11.532;2023-03-14T13:19:55;93683.00;;;21.50
15680;BMP180;15488;48.114;11.532;2023-03-14T13:22:26;93696.00;;;21.40
15680;BMP180;15488;48.114;11.532;2023-03-14T13:25:00;93686.00;;;21.30
15680;BMP180;15488;48.114;11.532;2023-03-14T13:27:31;93686.00;;;21.20
15680;BMP180;15488;48.114;11.532;2023-03-14T13:30:11;93687.00;;;21.20
15680;BMP180;15488;48.114;11.532;2023-03-14T13:32:43;93697.00;;;21.00
15680;BMP180;15488;48.114;11.532;2023-03-14T13:35:23;93738.00;;;20.90
15680;BMP180;15488;48.114;11.532;2023-03-14T13:37:58;93719.00;;;20.80
15680;BMP180;15488;48.114;11.532;2023-03-14T13:40:30;93718.00;;;20.70
15680;BMP180;15488;48.114;11.532;2023-03-14T13:43:10;93751.00;;;20.60
15680;BMP180;15488;48.114;11.532;2023-03-14T13:45:50;93755.00;;;20.40
15680;BMP180;15488;48.114;11.532;2023-03-14T13:48:18;93749.00;;;20.30
15680;BMP180;15488;48.114;11.532;2023-03-14T13:50:58;93764.00;;;20.20
15680;BMP180;15488;48.114;11.532;2023-03-14T13:53:26;93757.00;;;20.10
15680;BMP180;15488;48.114;11.532;2023-03-14T13:55:54;93774.00;;;19.90
15680;BMP180;15488;48.114;11.532;2023-03-14T13:58:31;93778.00;;;19.70
15680;BMP180;15488;48.114;11.532;2023-03-14T14:01:04;93787.00;;;19.60
15680;BMP180;15488;48.114;11.532;2023-03-14T14:03:34;93782.00;;;19.50
15680;BMP180;15488;48.114;11.532;2023-03-14T14:06:05;93784.00;;;19.40
15680;BMP180;15488;48.114;11.532;2023-03-14T14:08:35;93784.00;;;19.30
15680;BMP180;15488;48.114;11.532;2023-03-14T14:11:08;93801.00;;;19.20
15680;BMP180;15488;48.114;11.532;2023-03-14T14:13:39;93799.00;;;19.10
15680;BMP180;15488;48.114;11.532;2023-03-14T14:16:09;93813.00;;;19.00
15680;BMP180;15488;48.114;11.532;2023-03-14T14:18:37;93825.00;;;18.90
15680;BMP180;15488;48.114;11.532;2023-03-14T14:21:04;93847.00;;;18.80